sensor_id;sensor_type;location;lat;lon;timestamp;P1;durP1;ratioP1;P2;durP2;ratioP2
13071;SDS011;6602;58.934;11.166;2022-10-31T00:03:24;42.20;;;15.57;;
13071;SDS011;6602;58.934;11.166;2022-10-31T00:08:27;40.78;;;15.60;;
13071;SDS011;6602;58.934;11.166;2022-10-31T00:13:28;47.05;;;16.92;;
13071;SDS011;6602;58.934;11.166;2022-10-31T00:18:31;33.03;;;14.30;;
13071;SDS011;6602;58.934;11.166;2022-10-31T00:23:32;29.20;;;13.35;;
13071;SDS011;6602;58.934;11.166;2022-10-31T00:28:33;33.53;;;13.85;;
13071;SDS011;6602;58.934;11.166;2022-10-31T00:33:34;19.88;;;10.15;;
13071;SDS011;6602;58.934;11.166;2022-10-31T00:38:39;16.27;;;8.40;;
13071;SDS011;6602;58.934;11.166;2022-10-31T00:43:41;18.33;;;9.77;;
13071;SDS011;6602;58.934;11.166;2022-10-31T00:48:44;18.38;;;8.60;;
13071;SDS011;6602;58.934;11.166;2022-10-31T00:53:48;16.37;;;9.07;;
13071;SDS011;6602;58.934;11.166;2022-10-31T00:58:53;18.75;;;9.35;;
13071;SDS011;6602;58.934;11.166;2022-10-31T01:03:53;22.40;;;8.52;;
13071;SDS011;6602;58.934;11.166;2022-10-31T01:09:13;14.77;;;6.87;;
13071;SDS011;6602;58.934;11.166;2022-10-31T01:14:16;17.23;;;8.60;;
13071;SDS011;6602;58.934;11.166;2022-10-31T01:19:16;15.60;;;8.27;;
13071;SDS011;6602;58.934;11.166;2022-10-31T01:24:19;11.80;;;7.20;;
13071;SDS011;6602;58.934;11.166;2022-10-31T01:29:20;16.33;;;8.38;;
13071;SDS011;6602;58.934;11.166;2022-10-31T01:39:27;17.70;;;8.23;;
13071;SDS011;6602;58.934;11.166;2022-10-31T01:54:47;11.90;;;6.40;;
13071;SDS011;6602;58.934;11.166;2022-10-31T02:00:06;10.97;;;6.17;;
13071;SDS011;6602;58.934;11.166;2022-10-31T02:05:20;11.87;;;5.77;;
13071;SDS011;6602;58.934;11.166;2022-10-31T02:10:23;15.90;;;6.82;;
13071;SDS011;6602;58.934;11.166;2022-10-31T02:15:30;19.42;;;7.43;;
13071;SDS011;6602;58.934;11.166;2022-10-31T02:20:35;13.27;;;7.33;;
13071;SDS011;6602;58.934;11.166;2022-10-31T02:42:07;20.50;;;8.80;;
13071;SDS011;6602;58.934;11.166;2022-10-31T02:47:43;24.90;;;9.23;;
13071;SDS011;6602;58.934;11.166;2022-10-31T02:52:53;34.17;;;10.83;;
13071;SDS011;6602;58.934;11.166;2022-10-31T02:58:14;32.00;;;10.93;;
13071;SDS011;6602;58.934;11.166;2022-10-31T03:03:25;29.50;;;9.93;;
13071;SDS011;6602;58.934;11.166;2022-10-31T03:08:44;31.43;;;9.73;;
13071;SDS011;6602;58.934;11.166;2022-10-31T03:19:10;27.43;;;8.57;;
13071;SDS011;6602;58.934;11.166;2022-10-31T03:24:19;19.27;;;7.90;;
13071;SDS011;6602;58.934;11.166;2022-10-31T03:29:25;21.98;;;7.93;;
13071;SDS011;6602;58.934;11.166;2022-10-31T03:34:29;32.70;;;10.38;;
13071;SDS011;6602;58.934;11.166;2022-10-31T03:39:34;21.97;;;9.43;;
13071;SDS011;6602;58.934;11.166;2022-10-31T03:44:37;30.80;;;10.60;;
13071;SDS011;6602;58.934;11.166;2022-10-31T03:49:41;28.67;;;11.80;;
13071;SDS011;6602;58.934;11.166;2022-10-31T03:54:46;32.70;;;11.33;;
13071;SDS011;6602;58.934;11.166;2022-10-31T04:00:04;39.23;;;11.50;;
13071;SDS011;6602;58.934;11.166;2022-10-31T04:05:07;40.87;;;13.20;;
13071;SDS011;6602;58.934;11.166;2022-10-31T04:10:13;41.27;;;11.90;;
13071;SDS011;6602;58.934;11.166;2022-10-31T04:15:16;31.38;;;12.68;;
13071;SDS011;6602;58.934;11.166;2022-10-31T04:20:18;43.83;;;11.82;;
13071;SDS011;6602;58.934;11.166;2022-10-31T04:25:29;43.63;;;12.77;;
13071;SDS011;6602;58.934;11.166;2022-10-31T04:30:29;33.00;;;11.70;;
13071;SDS011;6602;58.934;11.166;2022-10-31T04:35:34;33.60;;;9.93;;
13071;SDS011;6602;58.934;11.166;2022-10-31T04:40:37;34.90;;;9.30;;
13071;SDS011;6602;58.934;11.166;2022-10-31T04:45:38;27.57;;;8.87;;
13071;SDS011;6602;58.934;11.166;2022-10-31T04:50:39;27.80;;;9.27;;
13071;SDS011;6602;58.934;11.166;2022-10-31T04:55:41;37.33;;;8.88;;
13071;SDS011;6602;58.934;11.166;2022-10-31T05:00:41;34.13;;;9.10;;
13071;SDS011;6602;58.934;11.166;2022-10-31T05:05:42;32.93;;;9.47;;
13071;SDS011;6602;58.934;11.166;2022-10-31T05:10:43;27.35;;;8.55;;
13071;SDS011;6602;58.934;11.166;2022-10-31T05:15:44;25.40;;;8.20;;
13071;SDS011;6602;58.934;11.166;2022-10-31T05:20:45;26.10;;;9.10;;
13071;SDS011;6602;58.934;11.166;2022-10-31T05:25:47;29.73;;;8.73;;
13071;SDS011;6602;58.934;11.166;2022-10-31T05:30:48;28.10;;;9.87;;
13071;SDS011;6602;58.934;11.166;2022-10-31T05:35:53;34.30;;;9.27;;
13071;SDS011;6602;58.934;11.166;2022-10-31T05:40:59;40.10;;;10.43;;
13071;SDS011;6602;58.934;11.166;2022-10-31T05:46:01;32.77;;;9.30;;
13071;SDS011;6602;58.934;11.166;2022-10-31T05:51:01;26.25;;;8.23;;
13071;SDS011;6602;58.934;11.166;2022-10-31T05:56:02;23.03;;;8.37;;
13071;SDS011;6602;58.934;11.166;2022-10-31T06:01:04;27.37;;;7.93;;
13071;SDS011;6602;58.934;11.166;2022-10-31T06:06:08;25.63;;;9.80;;
13071;SDS011;6602;58.934;11.166;2022-10-31T06:11:09;31.60;;;9.60;;
13071;SDS011;6602;58.934;11.166;2022-10-31T06:16:12;26.30;;;7.40;;
13071;SDS011;6602;58.934;11.166;2022-10-31T06:21:17;28.55;;;6.88;;
13071;SDS011;6602;58.934;11.166;2022-10-31T06:26:20;23.37;;;6.03;;
13071;SDS011;6602;58.934;11.166;2022-10-31T06:31:21;22.53;;;7.07;;
13071;SDS011;6602;58.934;11.166;2022-10-31T06:36:24;14.43;;;5.38;;
13071;SDS011;6602;58.934;11.166;2022-10-31T06:41:32;18.57;;;5.57;;
13071;SDS011;6602;58.934;11.166;2022-10-31T06:46:36;21.20;;;4.97;;
13071;SDS011;6602;58.934;11.166;2022-10-31T06:51:38;18.13;;;6.72;;
13071;SDS011;6602;58.934;11.166;2022-10-31T06:56:39;20.37;;;6.47;;
13071;SDS011;6602;58.934;11.166;2022-10-31T07:01:43;18.03;;;6.50;;
13071;SDS011;6602;58.934;11.166;2022-10-31T07:06:46;21.33;;;7.53;;
13071;SDS011;6602;58.934;11.166;2022-10-31T07:11:51;28.90;;;7.17;;
13071;SDS011;6602;58.934;11.166;2022-10-31T07:16:59;22.87;;;7.83;;
13071;SDS011;6602;58.934;11.166;2022-10-31T07:22:04;29.33;;;7.87;;
13071;SDS011;6602;58.934;11.166;2022-10-31T07:27:07;24.23;;;8.73;;
13071;SDS011;6602;58.934;11.166;2022-10-31T07:32:11;20.20;;;8.47;;
13071;SDS011;6602;58.934;11.166;2022-10-31T07:37:16;23.70;;;7.50;;
13071;SDS011;6602;58.934;11.166;2022-10-31T07:42:29;23.43;;;7.77;;
13071;SDS011;6602;58.934;11.166;2022-10-31T07:47:41;25.97;;;7.83;;
13071;SDS011;6602;58.934;11.166;2022-10-31T07:52:43;28.33;;;8.07;;
13071;SDS011;6602;58.934;11.166;2022-10-31T07:57:54;19.97;;;7.30;;
13071;SDS011;6602;58.934;11.166;2022-10-31T08:03:06;26.33;;;8.43;;
13071;SDS011;6602;58.934;11.166;2022-10-31T08:13:18;30.97;;;7.60;;
13071;SDS011;6602;58.934;11.166;2022-10-31T08:18:19;23.23;;;6.28;;
13071;SDS011;6602;58.934;11.166;2022-10-31T08:23:22;25.30;;;7.75;;
13071;SDS011;6602;58.934;11.166;2022-10-31T08:28:22;28.35;;;5.45;;
13071;SDS011;6602;58.934;11.166;2022-10-31T08:33:23;20.23;;;4.97;;
13071;SDS011;6602;58.934;11.166;2022-10-31T08:38:27;24.80;;;5.38;;
13071;SDS011;6602;58.934;11.166;2022-10-31T08:43:27;20.50;;;4.25;;
13071;SDS011;6602;58.934;11.166;2022-10-31T08:48:30;21.90;;;4.38;;
13071;SDS011;6602;58.934;11.166;2022-10-31T08:53:32;16.83;;;3.85;;
13071;SDS011;6602;58.934;11.166;2022-10-31T08:58:33;14.50;;;3.83;;
13071;SDS011;6602;58.934;11.166;2022-10-31T09:03:33;18.55;;;3.90;;
13071;SDS011;6602;58.934;11.166;2022-10-31T09:08:37;24.08;;;4.57;;
13071;SDS011;6602;58.934;11.166;2022-10-31T09:13:45;18.48;;;3.60;;
13071;SDS011;6602;58.934;11.166;2022-10-31T09:18:46;23.92;;;3.67;;
13071;SDS011;6602;58.934;11.166;2022-10-31T09:23:52;19.23;;;3.15;;
13071;SDS011;6602;58.934;11.166;2022-10-31T09:28:53;19.83;;;3.47;;
13071;SDS011;6602;58.934;11.166;2022-10-31T09:33:55;20.35;;;3.45;;
13071;SDS011;6602;58.934;11.166;2022-10-31T09:38:56;21.80;;;3.50;;
13071;SDS011;6602;58.934;11.166;2022-10-31T09:55:22;19.48;;;3.83;;
13071;SDS011;6602;58.934;11.166;2022-10-31T10:00:31;20.23;;;3.42;;
13071;SDS011;6602;58.934;11.166;2022-10-31T10:05:53;22.95;;;4.40;;
13071;SDS011;6602;58.934;11.166;2022-10-31T10:16:44;22.27;;;3.65;;
13071;SDS011;6602;58.934;11.166;2022-10-31T10:22:00;17.77;;;3.50;;
13071;SDS011;6602;58.934;11.166;2022-10-31T10:32:58;30.98;;;4.38;;
13071;SDS011;6602;58.934;11.166;2022-10-31T10:38:25;22.73;;;4.10;;
13071;SDS011;6602;58.934;11.166;2022-10-31T10:43:41;22.35;;;3.53;;
13071;SDS011;6602;58.934;11.166;2022-10-31T10:53:54;27.98;;;4.50;;
13071;SDS011;6602;58.934;11.166;2022-10-31T10:59:14;28.55;;;4.28;;
13071;SDS011;6602;58.934;11.166;2022-10-31T11:04:34;24.02;;;4.00;;
13071;SDS011;6602;58.934;11.166;2022-10-31T11:09:39;28.25;;;4.35;;
13071;SDS011;6602;58.934;11.166;2022-10-31T11:14:50;23.67;;;3.80;;
13071;SDS011;6602;58.934;11.166;2022-10-31T11:20:04;20.80;;;4.20;;
13071;SDS011;6602;58.934;11.166;2022-10-31T11:30:21;20.20;;;4.43;;
13071;SDS011;6602;58.934;11.166;2022-10-31T11:35:24;29.85;;;6.15;;
13071;SDS011;6602;58.934;11.166;2022-10-31T11:40:27;29.67;;;4.57;;
13071;SDS011;6602;58.934;11.166;2022-10-31T11:50:34;20.70;;;4.38;;
13071;SDS011;6602;58.934;11.166;2022-10-31T11:55:40;18.85;;;5.15;;
13071;SDS011;6602;58.934;11.166;2022-10-31T12:00:41;21.10;;;4.78;;
13071;SDS011;6602;58.934;11.166;2022-10-31T12:22:00;24.25;;;6.00;;
13071;SDS011;6602;58.934;11.166;2022-10-31T12:27:12;25.90;;;5.95;;
13071;SDS011;6602;58.934;11.166;2022-10-31T12:32:29;20.67;;;5.15;;
13071;SDS011;6602;58.934;11.166;2022-10-31T12:37:50;24.73;;;5.63;;
13071;SDS011;6602;58.934;11.166;2022-10-31T12:43:14;27.15;;;5.30;;
13071;SDS011;6602;58.934;11.166;2022-10-31T12:59:10;23.25;;;5.32;;
13071;SDS011;6602;58.934;11.166;2022-10-31T13:10:05;24.87;;;4.80;;
13071;SDS011;6602;58.934;11.166;2022-10-31T13:15:33;26.42;;;5.35;;
13071;SDS011;6602;58.934;11.166;2022-10-31T13:20:48;28.90;;;5.43;;
13071;SDS011;6602;58.934;11.166;2022-10-31T13:25:53;30.85;;;6.68;;
13071;SDS011;6602;58.934;11.166;2022-10-31T13:31:04;17.35;;;4.25;;
13071;SDS011;6602;58.934;11.166;2022-10-31T13:41:53;23.02;;;6.00;;
13071;SDS011;6602;58.934;11.166;2022-10-31T13:47:04;29.15;;;5.20;;
13071;SDS011;6602;58.934;11.166;2022-10-31T13:52:24;23.90;;;5.45;;
13071;SDS011;6602;58.934;11.166;2022-10-31T13:57:37;23.67;;;4.50;;
13071;SDS011;6602;58.934;11.166;2022-10-31T14:02:51;21.42;;;5.15;;
13071;SDS011;6602;58.934;11.166;2022-10-31T14:08:04;17.45;;;4.70;;
13071;SDS011;6602;58.934;11.166;2022-10-31T14:18:48;18.27;;;5.38;;
13071;SDS011;6602;58.934;11.166;2022-10-31T14:24:30;22.50;;;4.80;;
13071;SDS011;6602;58.934;11.166;2022-10-31T14:29:36;21.85;;;4.20;;
13071;SDS011;6602;58.934;11.166;2022-10-31T14:34:56;20.35;;;5.18;;
13071;SDS011;6602;58.934;11.166;2022-10-31T14:50:42;19.00;;;4.43;;
13071;SDS011;6602;58.934;11.166;2022-10-31T14:55:47;17.80;;;4.63;;
13071;SDS011;6602;58.934;11.166;2022-10-31T15:00:54;26.47;;;4.63;;
13071;SDS011;6602;58.934;11.166;2022-10-31T15:05:58;18.27;;;4.70;;
13071;SDS011;6602;58.934;11.166;2022-10-31T15:11:14;20.10;;;4.63;;
13071;SDS011;6602;58.934;11.166;2022-10-31T15:16:43;20.35;;;4.20;;
13071;SDS011;6602;58.934;11.166;2022-10-31T15:21:57;14.40;;;3.63;;
13071;SDS011;6602;58.934;11.166;2022-10-31T15:27:23;18.37;;;4.30;;
13071;SDS011;6602;58.934;11.166;2022-10-31T15:32:30;17.80;;;4.13;;
13071;SDS011;6602;58.934;11.166;2022-10-31T15:37:32;13.10;;;4.33;;
13071;SDS011;6602;58.934;11.166;2022-10-31T15:42:39;19.47;;;4.97;;
13071;SDS011;6602;58.934;11.166;2022-10-31T15:47:48;23.67;;;4.20;;
13071;SDS011;6602;58.934;11.166;2022-10-31T15:53:02;23.58;;;4.30;;
13071;SDS011;6602;58.934;11.166;2022-10-31T15:58:13;20.10;;;3.57;;
13071;SDS011;6602;58.934;11.166;2022-10-31T16:08:34;22.35;;;4.25;;
13071;SDS011;6602;58.934;11.166;2022-10-31T16:13:40;21.92;;;4.78;;
13071;SDS011;6602;58.934;11.166;2022-10-31T16:18:54;26.90;;;3.85;;
13071;SDS011;6602;58.934;11.166;2022-10-31T16:24:02;21.53;;;3.80;;
13071;SDS011;6602;58.934;11.166;2022-10-31T16:29:23;24.53;;;4.43;;
13071;SDS011;6602;58.934;11.166;2022-10-31T16:34:27;23.43;;;3.80;;
13071;SDS011;6602;58.934;11.166;2022-10-31T16:39:27;22.38;;;4.13;;
13071;SDS011;6602;58.934;11.166;2022-10-31T16:44:31;21.20;;;5.13;;
13071;SDS011;6602;58.934;11.166;2022-10-31T16:49:33;23.17;;;4.07;;
13071;SDS011;6602;58.934;11.166;2022-10-31T16:54:34;17.63;;;3.57;;
13071;SDS011;6602;58.934;11.166;2022-10-31T16:59:35;18.13;;;4.17;;
13071;SDS011;6602;58.934;11.166;2022-10-31T17:04:39;27.50;;;4.40;;
13071;SDS011;6602;58.934;11.166;2022-10-31T17:09:40;13.20;;;3.97;;
13071;SDS011;6602;58.934;11.166;2022-10-31T17:14:41;25.17;;;4.10;;
13071;SDS011;6602;58.934;11.166;2022-10-31T17:19:42;18.97;;;3.63;;
13071;SDS011;6602;58.934;11.166;2022-10-31T17:24:50;22.20;;;3.57;;
13071;SDS011;6602;58.934;11.166;2022-10-31T17:29:51;31.07;;;4.10;;
13071;SDS011;6602;58.934;11.166;2022-10-31T17:34:51;20.67;;;4.63;;
13071;SDS011;6602;58.934;11.166;2022-10-31T17:39:52;21.23;;;4.27;;
13071;SDS011;6602;58.934;11.166;2022-10-31T17:44:55;33.25;;;4.50;;
13071;SDS011;6602;58.934;11.166;2022-10-31T17:50:05;20.02;;;3.35;;
13071;SDS011;6602;58.934;11.166;2022-10-31T17:55:06;18.73;;;3.93;;
13071;SDS011;6602;58.934;11.166;2022-10-31T18:00:11;26.90;;;5.83;;
13071;SDS011;6602;58.934;11.166;2022-10-31T18:05:17;27.57;;;4.47;;
13071;SDS011;6602;58.934;11.166;2022-10-31T18:10:18;22.15;;;3.70;;
13071;SDS011;6602;58.934;11.166;2022-10-31T18:15:21;16.42;;;3.55;;
13071;SDS011;6602;58.934;11.166;2022-10-31T18:20:22;34.40;;;5.47;;
13071;SDS011;6602;58.934;11.166;2022-10-31T18:25:22;19.17;;;4.13;;
13071;SDS011;6602;58.934;11.166;2022-10-31T18:30:24;22.73;;;4.67;;
13071;SDS011;6602;58.934;11.166;2022-10-31T18:35:36;21.63;;;4.50;;
13071;SDS011;6602;58.934;11.166;2022-10-31T18:40:37;17.73;;;4.43;;
13071;SDS011;6602;58.934;11.166;2022-10-31T18:45:38;24.63;;;3.83;;
13071;SDS011;6602;58.934;11.166;2022-10-31T18:50:39;22.75;;;4.82;;
13071;SDS011;6602;58.934;11.166;2022-10-31T18:55:42;25.30;;;4.87;;
13071;SDS011;6602;58.934;11.166;2022-10-31T19:00:43;25.67;;;5.43;;
13071;SDS011;6602;58.934;11.166;2022-10-31T19:05:46;31.83;;;5.33;;
13071;SDS011;6602;58.934;11.166;2022-10-31T19:10:51;20.07;;;4.40;;
13071;SDS011;6602;58.934;11.166;2022-10-31T19:15:52;24.37;;;4.33;;
13071;SDS011;6602;58.934;11.166;2022-10-31T19:20:54;28.47;;;5.60;;
13071;SDS011;6602;58.934;11.166;2022-10-31T19:25:57;24.77;;;5.70;;
13071;SDS011;6602;58.934;11.166;2022-10-31T19:31:00;25.80;;;5.60;;
13071;SDS011;6602;58.934;11.166;2022-10-31T19:41:14;23.33;;;5.13;;
13071;SDS011;6602;58.934;11.166;2022-10-31T19:46:33;18.38;;;4.63;;
13071;SDS011;6602;58.934;11.166;2022-10-31T19:51:40;23.30;;;5.80;;
13071;SDS011;6602;58.934;11.166;2022-10-31T19:56:40;29.38;;;5.40;;
13071;SDS011;6602;58.934;11.166;2022-10-31T20:01:42;19.63;;;4.77;;
13071;SDS011;6602;58.934;11.166;2022-10-31T20:06:46;26.27;;;4.73;;
13071;SDS011;6602;58.934;11.166;2022-10-31T20:11:46;26.77;;;5.07;;
13071;SDS011;6602;58.934;11.166;2022-10-31T20:16:47;24.60;;;4.00;;
13071;SDS011;6602;58.934;11.166;2022-10-31T20:21:52;22.20;;;5.23;;
13071;SDS011;6602;58.934;11.166;2022-10-31T20:26:57;20.83;;;5.40;;
13071;SDS011;6602;58.934;11.166;2022-10-31T20:31:58;28.42;;;5.50;;
13071;SDS011;6602;58.934;11.166;2022-10-31T20:36:58;27.10;;;5.30;;
13071;SDS011;6602;58.934;11.166;2022-10-31T20:42:07;28.90;;;5.43;;
13071;SDS011;6602;58.934;11.166;2022-10-31T20:47:08;25.97;;;5.37;;
13071;SDS011;6602;58.934;11.166;2022-10-31T20:52:14;27.17;;;4.97;;
13071;SDS011;6602;58.934;11.166;2022-10-31T20:57:16;27.13;;;5.17;;
13071;SDS011;6602;58.934;11.166;2022-10-31T21:02:17;23.60;;;4.30;;
13071;SDS011;6602;58.934;11.166;2022-10-31T21:07:18;19.98;;;4.43;;
13071;SDS011;6602;58.934;11.166;2022-10-31T21:12:20;19.27;;;4.70;;
13071;SDS011;6602;58.934;11.166;2022-10-31T21:17:20;19.87;;;4.10;;
13071;SDS011;6602;58.934;11.166;2022-10-31T21:22:21;13.30;;;3.80;;
13071;SDS011;6602;58.934;11.166;2022-10-31T21:27:24;21.37;;;4.00;;
13071;SDS011;6602;58.934;11.166;2022-10-31T21:32:25;18.77;;;3.60;;
13071;SDS011;6602;58.934;11.166;2022-10-31T21:37:27;27.17;;;5.20;;
13071;SDS011;6602;58.934;11.166;2022-10-31T21:42:30;16.87;;;4.43;;
13071;SDS011;6602;58.934;11.166;2022-10-31T21:47:32;11.93;;;3.60;;
13071;SDS011;6602;58.934;11.166;2022-10-31T21:52:35;12.57;;;3.20;;
13071;SDS011;6602;58.934;11.166;2022-10-31T21:57:38;15.73;;;4.07;;
13071;SDS011;6602;58.934;11.166;2022-10-31T22:02:43;17.00;;;4.87;;
13071;SDS011;6602;58.934;11.166;2022-10-31T22:07:46;18.10;;;4.00;;
13071;SDS011;6602;58.934;11.166;2022-10-31T22:12:48;22.30;;;4.37;;
13071;SDS011;6602;58.934;11.166;2022-10-31T22:17:49;15.63;;;4.63;;
13071;SDS011;6602;58.934;11.166;2022-10-31T22:22:50;18.93;;;5.17;;
13071;SDS011;6602;58.934;11.166;2022-10-31T22:27:51;21.00;;;5.60;;
13071;SDS011;6602;58.934;11.166;2022-10-31T22:32:55;18.97;;;5.37;;
13071;SDS011;6602;58.934;11.166;2022-10-31T22:37:58;19.63;;;5.80;;
13071;SDS011;6602;58.934;11.166;2022-10-31T22:42:58;16.73;;;4.60;;
13071;SDS011;6602;58.934;11.166;2022-10-31T22:47:59;18.87;;;5.03;;
13071;SDS011;6602;58.934;11.166;2022-10-31T22:53:00;23.17;;;5.77;;
13071;SDS011;6602;58.934;11.166;2022-10-31T22:58:01;19.60;;;5.27;;
13071;SDS011;6602;58.934;11.166;2022-10-31T23:03:01;26.77;;;5.83;;
13071;SDS011;6602;58.934;11.166;2022-10-31T23:08:03;31.23;;;7.27;;
13071;SDS011;6602;58.934;11.166;2022-10-31T23:13:10;20.43;;;5.93;;
13071;SDS011;6602;58.934;11.166;2022-10-31T23:18:31;15.40;;;5.63;;
13071;SDS011;6602;58.934;11.166;2022-10-31T23:23:37;23.73;;;5.50;;
13071;SDS011;6602;58.934;11.166;2022-10-31T23:28:43;14.77;;;4.90;;
13071;SDS011;6602;58.934;11.166;2022-10-31T23:34:05;20.20;;;6.10;;
13071;SDS011;6602;58.934;11.166;2022-10-31T23:39:05;15.47;;;5.47;;
13071;SDS011;6602;58.934;11.166;2022-10-31T23:44:06;20.67;;;6.17;;
13071;SDS011;6602;58.934;11.166;2022-10-31T23:49:12;18.43;;;6.07;;
13071;SDS011;6602;58.934;11.166;2022-10-31T23:54:13;18.20;;;6.13;;
13071;SDS011;6602;58.934;11.166;2022-10-31T23:59:13;20.37;;;6.37;;
